createdAt,value
2022-09-28T00:03:48.549Z,100959.28
2022-09-28T00:08:50.501Z,100944.97
2022-09-28T00:13:56.611Z,100936.50
2022-09-28T00:18:59.161Z,100933.56
2022-09-28T00:24:19.949Z,100943.63
2022-09-28T00:29:27.269Z,100931.56
2022-09-28T00:34:34.779Z,100927.81
2022-09-28T00:39:38.506Z,100927.97
2022-09-28T00:44:48.071Z,100913.66
2022-09-28T00:49:56.393Z,100907.47
2022-09-28T00:55:01.943Z,100913.63
2022-09-28T01:05:14.914Z,100916.69
2022-09-28T01:10:17.362Z,100902.69
2022-09-28T01:15:21.985Z,100897.81
2022-09-28T01:20:31.174Z,100891.31
2022-09-28T01:25:50.946Z,100898.06
2022-09-28T01:31:03.529Z,100887.97
2022-09-28T01:36:26.755Z,100891.69
2022-09-28T01:41:36.639Z,100891.84
2022-09-28T01:46:46.483Z,100890.03
2022-09-28T01:51:59.979Z,100874.59
2022-09-28T01:57:14.059Z,100875.22
2022-09-28T02:02:25.208Z,100867.28
2022-09-28T02:07:42.543Z,100864.50
2022-09-28T02:12:52.417Z,100855.72
2022-09-28T02:17:54.950Z,100846.47
2022-09-28T02:23:02.233Z,100839.94
2022-09-28T02:28:16.134Z,100826.78
2022-09-28T02:33:41.074Z,100832.41
2022-09-28T02:38:43.635Z,100826.91
2022-09-28T02:44:07.232Z,100822.81
2022-09-28T02:49:22.315Z,100801.41
2022-09-28T02:54:33.082Z,100804.28
2022-09-28T03:05:30.991Z,100798.91
2022-09-28T03:11:11.869Z,100791.59
2022-09-28T03:16:18.693Z,100805.50
2022-09-28T03:21:34.936Z,100809.22
2022-09-28T03:26:57.394Z,100802.38
2022-09-28T03:32:17.433Z,100803.81
2022-09-28T03:37:27.356Z,100796.50
2022-09-28T03:42:56.864Z,100788.66
2022-09-28T03:48:04.574Z,100798.38
2022-09-28T03:53:13.020Z,100784.88
2022-09-28T03:58:22.297Z,100776.94
2022-09-28T04:03:31.297Z,100772.88
2022-09-28T04:08:35.572Z,100768.78
2022-09-28T04:13:40.951Z,100763.91
2022-09-28T04:18:52.914Z,100758.41
2022-09-28T04:24:49.442Z,100762.47
2022-09-28T04:30:00.874Z,100752.88
2022-09-28T04:35:19.932Z,100756.78
2022-09-28T04:40:29.492Z,100760.66
2022-09-28T04:45:35.994Z,100759.53
2022-09-28T04:50:58.995Z,100763.91
2022-09-28T04:56:13.897Z,100745.44
2022-09-28T05:01:29.135Z,100745.94
2022-09-28T05:06:55.308Z,100745.63
2022-09-28T05:12:07.536Z,100733.59
2022-09-28T05:17:16.668Z,100730.84
2022-09-28T05:22:29.837Z,100733.91
2022-09-28T05:33:18.540Z,100730.47
2022-09-28T05:38:34.255Z,100719.13
2022-09-28T05:43:46.233Z,100720.75
2022-09-28T05:48:53.249Z,100714.13
2022-09-28T05:54:05.876Z,100713.50
2022-09-28T05:59:18.319Z,100712.69
2022-09-28T06:04:34.294Z,100706.34
2022-09-28T06:09:41.946Z,100690.63
2022-09-28T06:15:14.057Z,100687.38
2022-09-28T06:20:31.496Z,100690.13
2022-09-28T06:25:53.353Z,100689.81
2022-09-28T06:30:57.123Z,100687.75
2022-09-28T06:36:12.367Z,100694.56
2022-09-28T06:41:24.423Z,100714.84
2022-09-28T06:46:31.528Z,100699.31
2022-09-28T06:52:05.144Z,100697.75
2022-09-28T06:57:50.128Z,100701.03
2022-09-28T07:08:50.892Z,100722.16
2022-09-28T07:14:37.860Z,100711.84
2022-09-28T07:19:51.119Z,100692.22
2022-09-28T07:30:52.266Z,100703.72
2022-09-28T07:36:22.993Z,100714.75
2022-09-28T07:41:34.972Z,100726.66
2022-09-28T07:46:55.390Z,100732.38
2022-09-28T07:58:04.057Z,100733.50
2022-09-28T08:03:35.991Z,100738.63
2022-09-28T08:08:58.014Z,100742.97
2022-09-28T08:14:29.158Z,100754.25
2022-09-28T08:20:19.708Z,100747.28
2022-09-28T08:25:33.030Z,100741.19
2022-09-28T08:30:54.198Z,100755.47
2022-09-28T08:36:38.862Z,100743.22
2022-09-28T08:42:31.213Z,100744.88
2022-09-28T08:48:56.205Z,100742.03
2022-09-28T08:55:19.716Z,100754.25
2022-09-28T09:00:54.969Z,100757.94
2022-09-28T09:06:56.266Z,100748.88
2022-09-28T09:12:50.773Z,100745.38
2022-09-28T09:18:43.845Z,100739.03
2022-09-28T09:24:34.147Z,100734.97
2022-09-28T09:30:20.535Z,100729.44
2022-09-28T09:36:16.495Z,100718.34
2022-09-28T09:42:11.334Z,100700.34
2022-09-28T09:48:21.777Z,100702.44
2022-09-28T09:53:58.249Z,100694.25
2022-09-28T09:59:36.176Z,100684.91
2022-09-28T10:05:30.376Z,100680.56
2022-09-28T10:10:55.724Z,100678.88
2022-09-28T10:16:13.614Z,100673.19
2022-09-28T10:21:43.267Z,100668.34
2022-09-28T10:27:22.169Z,100667.28
2022-09-28T10:32:43.058Z,100664.50
2022-09-28T10:38:06.915Z,100660.00
2022-09-28T10:44:12.600Z,100654.22
2022-09-28T10:49:53.171Z,100642.84
2022-09-28T10:55:33.965Z,100647.50
2022-09-28T11:00:49.109Z,100643.31
2022-09-28T11:06:00.975Z,100637.00
2022-09-28T11:17:45.851Z,100623.28
2022-09-28T11:23:05.113Z,100609.63
2022-09-28T11:28:37.615Z,100601.47
2022-09-28T11:34:18.905Z,100598.41
2022-09-28T11:40:23.703Z,100584.03
2022-09-28T11:45:58.726Z,100571.88
2022-09-28T11:51:24.275Z,100554.66
2022-09-28T11:56:42.452Z,100540.84
2022-09-28T12:01:58.509Z,100538.03
2022-09-28T12:07:38.671Z,100519.28
2022-09-28T12:13:02.702Z,100500.13
2022-09-28T12:18:52.025Z,100499.94
2022-09-28T12:24:12.438Z,100490.53
2022-09-28T12:29:26.836Z,100492.63
2022-09-28T12:34:36.817Z,100482.16
2022-09-28T12:40:05.312Z,100465.03
2022-09-28T12:45:25.228Z,100455.09
2022-09-28T12:51:26.887Z,100443.50
2022-09-28T12:57:10.718Z,100429.13
2022-09-28T13:02:53.282Z,100424.00
2022-09-28T13:08:34.709Z,100407.88
2022-09-28T13:14:16.859Z,100408.56
2022-09-28T13:19:32.373Z,100390.47
2022-09-28T13:24:47.858Z,100393.72
2022-09-28T13:29:54.944Z,100388.78
2022-09-28T13:35:18.531Z,100391.13
2022-09-28T13:41:07.476Z,100376.28
2022-09-28T13:46:54.826Z,100378.84
2022-09-28T13:52:38.986Z,100369.88
2022-09-28T13:58:24.512Z,100353.03
2022-09-28T14:03:57.438Z,100345.63
2022-09-28T14:09:46.025Z,100327.09
2022-09-28T14:14:56.577Z,100324.06
2022-09-28T14:20:28.085Z,100320.09
2022-09-28T14:26:01.458Z,100320.94
2022-09-28T14:31:25.345Z,100317.69
2022-09-28T14:37:06.183Z,100308.72
2022-09-28T14:42:16.463Z,100295.88
2022-09-28T14:48:20.544Z,100284.59
2022-09-28T14:53:37.390Z,100287.38
2022-09-28T14:58:57.083Z,100277.41
2022-09-28T15:04:13.495Z,100272.16
2022-09-28T15:09:54.094Z,100273.34
2022-09-28T15:21:09.215Z,100258.97
2022-09-28T15:26:39.769Z,100264.09
2022-09-28T15:31:48.933Z,100264.09
2022-09-28T15:37:18.365Z,100266.47
2022-09-28T15:42:31.545Z,100259.28
2022-09-28T15:47:36.282Z,100254.47
2022-09-28T15:53:12.147Z,100254.03
2022-09-28T15:58:22.624Z,100256.38
2022-09-28T16:03:38.965Z,100253.56
2022-09-28T16:08:51.295Z,100246.31
2022-09-28T16:14:22.189Z,100244.66
2022-09-28T16:19:40.534Z,100230.25
2022-09-28T16:30:39.137Z,100234.81
2022-09-28T16:35:49.075Z,100231.16
2022-09-28T16:41:05.984Z,100220.31
2022-09-28T16:51:37.886Z,100224.50
2022-09-28T16:56:54.454Z,100234.34
2022-09-28T17:02:01.617Z,100237.44
2022-09-28T17:07:13.949Z,100234.59
2022-09-28T17:12:30.192Z,100242.13
2022-09-28T17:17:41.572Z,100234.97
2022-09-28T17:22:56.393Z,100235.78
2022-09-28T17:28:03.641Z,100236.16
2022-09-28T17:33:08.820Z,100234.03
2022-09-28T17:38:28.439Z,100237.13
2022-09-28T17:43:35.925Z,100249.72
2022-09-28T17:48:51.455Z,100254.88
2022-09-28T17:53:57.805Z,100267.09
2022-09-28T17:59:31.629Z,100257.81
2022-09-28T18:04:52.053Z,100262.50
2022-09-28T18:09:59.455Z,100262.00
2022-09-28T18:15:08.286Z,100264.25
2022-09-28T18:20:14.619Z,100266.94
2022-09-28T18:25:19.973Z,100274.00
2022-09-28T18:30:30.415Z,100275.09
2022-09-28T18:35:46.366Z,100280.97
2022-09-28T18:41:01.532Z,100266.53
2022-09-28T18:46:10.712Z,100275.53
2022-09-28T18:51:21.063Z,100278.59
2022-09-28T18:56:28.678Z,100277.63
2022-09-28T19:01:34.346Z,100285.47
2022-09-28T19:06:47.120Z,100287.72
2022-09-28T19:11:53.427Z,100296.41
2022-09-28T19:16:57.996Z,100295.97
2022-09-28T19:27:50.002Z,100303.69
2022-09-28T19:33:08.646Z,100311.13
2022-09-28T19:38:17.126Z,100307.56
2022-09-28T19:43:24.836Z,100305.50
2022-09-28T19:48:33.142Z,100313.38
2022-09-28T19:53:40.663Z,100304.13
2022-09-28T19:58:47.915Z,100300.47
2022-09-28T20:04:20.640Z,100314.63
2022-09-28T20:09:29.066Z,100322.84
2022-09-28T20:14:41.400Z,100322.75
2022-09-28T20:20:01.810Z,100325.78
2022-09-28T20:25:11.572Z,100326.06
2022-09-28T20:30:22.658Z,100323.56
2022-09-28T20:35:33.268Z,100319.44
2022-09-28T20:40:41.247Z,100328.03
2022-09-28T20:45:48.825Z,100329.53
2022-09-28T20:51:19.437Z,100326.31
2022-09-28T20:56:50.608Z,100322.28
2022-09-28T21:01:56.423Z,100333.28
2022-09-28T21:07:11.534Z,100349.13
2022-09-28T21:12:18.458Z,100348.34
2022-09-28T21:17:33.293Z,100353.06
2022-09-28T21:22:40.154Z,100347.53
2022-09-28T21:27:46.417Z,100362.56
2022-09-28T21:32:56.579Z,100350.56
2022-09-28T21:37:58.752Z,100346.16
2022-09-28T21:43:02.560Z,100351.63
2022-09-28T21:48:11.278Z,100359.41
2022-09-28T21:53:15.428Z,100369.25
2022-09-28T21:58:25.855Z,100382.63
2022-09-28T22:03:36.790Z,100389.78
2022-09-28T22:08:50.437Z,100381.38
2022-09-28T22:14:04.776Z,100378.63
2022-09-28T22:19:12.616Z,100394.03
2022-09-28T22:24:15.798Z,100390.34
2022-09-28T22:29:23.971Z,100381.88
2022-09-28T22:34:33.935Z,100399.69
2022-09-28T22:39:44.425Z,100409.16
2022-09-28T22:44:52.582Z,100399.94
2022-09-28T22:50:01.025Z,100404.56
2022-09-28T22:55:12.681Z,100403.19
2022-09-28T23:00:23.292Z,100410.59
2022-09-28T23:05:29.212Z,100392.34
2022-09-28T23:10:35.801Z,100381.94
2022-09-28T23:15:44.259Z,100366.47
2022-09-28T23:21:09.502Z,100370.75
2022-09-28T23:26:26.214Z,100363.22
2022-09-28T23:31:33.883Z,100346.94
2022-09-28T23:36:46.655Z,100348.09
2022-09-28T23:41:50.910Z,100354.00
2022-09-28T23:47:02.661Z,100349.97
2022-09-28T23:52:12.126Z,100352.16
2022-09-28T23:57:16.073Z,100343.41
